sensor_id;sensor_type;location;lat;lon;timestamp;pressure;altitude;pressure_sealevel;temperature;humidity
46846;BME280;33947;46.804;134.252;2023-02-21T00:00:32;102120.28;;;-15.95;50.96
46846;BME280;33947;46.804;134.252;2023-02-21T00:03:55;102173.28;;;-15.75;50.72
46846;BME280;33947;46.804;134.252;2023-02-21T00:07:18;102186.00;;;-15.75;51.56
46846;BME280;33947;46.804;134.252;2023-02-21T00:10:42;102173.34;;;-16.39;53.55
46846;BME280;33947;46.804;134.252;2023-02-21T00:14:05;102182.78;;;-16.22;55.04
46846;BME280;33947;46.804;134.252;2023-02-21T00:17:27;102174.91;;;-16.17;55.38
46846;BME280;33947;46.804;134.252;2023-02-21T00:20:50;102170.59;;;-15.52;55.45
46846;BME280;33947;46.804;134.252;2023-02-21T00:24:14;102195.28;;;-14.59;55.60
46846;BME280;33947;46.804;134.252;2023-02-21T00:27:37;102179.69;;;-13.30;54.85
46846;BME280;33947;46.804;134.252;2023-02-21T00:31:00;102080.13;;;-12.72;53.03
46846;BME280;33947;46.804;134.252;2023-02-21T00:34:23;102159.16;;;-11.22;51.55
46846;BME280;33947;46.804;134.252;2023-02-21T00:37:50;102159.22;;;-10.51;50.81
46846;BME280;33947;46.804;134.252;2023-02-21T00:41:13;102156.97;;;-10.05;49.13
46846;BME280;33947;46.804;134.252;2023-02-21T00:44:36;102175.91;;;-8.64;46.67
46846;BME280;33947;46.804;134.252;2023-02-21T00:47:58;102161.78;;;-9.24;46.25
46846;BME280;33947;46.804;134.252;2023-02-21T00:51:21;102168.81;;;-8.89;44.93
46846;BME280;33947;46.804;134.252;2023-02-21T00:54:44;102183.34;;;-8.10;46.21
46846;BME280;33947;46.804;134.252;2023-02-21T00:58:07;102117.59;;;-7.20;43.71
46846;BME280;33947;46.804;134.252;2023-02-21T01:01:30;102175.97;;;-7.22;44.01
46846;BME280;33947;46.804;134.252;2023-02-21T01:04:53;102123.28;;;-7.01;42.30
46846;BME280;33947;46.804;134.252;2023-02-21T01:08:15;102191.59;;;-5.42;41.38
46846;BME280;33947;46.804;134.252;2023-02-21T01:11:38;102158.50;;;-5.05;39.54
46846;BME280;33947;46.804;134.252;2023-02-21T01:15:01;102127.75;;;-5.68;39.05
46846;BME280;33947;46.804;134.252;2023-02-21T01:18:24;102096.53;;;-7.50;38.83
46846;BME280;33947;46.804;134.252;2023-02-21T01:21:47;102123.00;;;-6.02;41.32
46846;BME280;33947;46.804;134.252;2023-02-21T01:25:10;102173.88;;;-5.22;40.28
46846;BME280;33947;46.804;134.252;2023-02-21T01:28:34;102191.47;;;-6.61;40.48
46846;BME280;33947;46.804;134.252;2023-02-21T01:31:56;102205.16;;;-4.63;38.86
46846;BME280;33947;46.804;134.252;2023-02-21T01:35:19;102203.19;;;-4.39;39.77
46846;BME280;33947;46.804;134.252;2023-02-21T01:38:43;102206.41;;;-3.08;37.35
46846;BME280;33947;46.804;134.252;2023-02-21T01:42:05;102190.06;;;-3.06;36.17
46846;BME280;33947;46.804;134.252;2023-02-21T01:45:51;102205.88;;;-3.02;34.72
46846;BME280;33947;46.804;134.252;2023-02-21T01:49:16;102176.56;;;-3.76;36.87
46846;BME280;33947;46.804;134.252;2023-02-21T01:52:40;102207.72;;;-3.92;35.26
46846;BME280;33947;46.804;134.252;2023-02-21T01:56:03;102194.81;;;-3.30;37.22
46846;BME280;33947;46.804;134.252;2023-02-21T01:59:27;102208.81;;;-4.03;36.10
46846;BME280;33947;46.804;134.252;2023-02-21T02:03:03;102213.97;;;-4.18;36.30
46846;BME280;33947;46.804;134.252;2023-02-21T02:06:26;102212.19;;;-4.19;37.14
46846;BME280;33947;46.804;134.252;2023-02-21T02:09:48;102208.81;;;-5.15;38.61
46846;BME280;33947;46.804;134.252;2023-02-21T02:13:34;102203.56;;;-5.57;37.68
46846;BME280;33947;46.804;134.252;2023-02-21T02:17:29;102206.22;;;-5.15;39.55
46846;BME280;33947;46.804;134.252;2023-02-21T02:24:18;102205.28;;;-6.35;39.73
46846;BME280;33947;46.804;134.252;2023-02-21T02:38:33;102114.63;;;-5.85;35.99
46846;BME280;33947;46.804;134.252;2023-02-21T02:44:52;102165.50;;;-5.58;38.55
46846;BME280;33947;46.804;134.252;2023-02-21T02:48:08;102158.97;;;-6.44;39.52
46846;BME280;33947;46.804;134.252;2023-02-21T02:51:16;102164.28;;;-6.68;39.81
46846;BME280;33947;46.804;134.252;2023-02-21T02:54:22;102150.31;;;-6.58;40.99
46846;BME280;33947;46.804;134.252;2023-02-21T02:57:29;102161.28;;;-6.74;40.11
46846;BME280;33947;46.804;134.252;2023-02-21T03:00:51;102169.66;;;-6.65;39.47
46846;BME280;33947;46.804;134.252;2023-02-21T03:07:06;102174.66;;;-6.04;39.28
46846;BME280;33947;46.804;134.252;2023-02-21T03:13:33;102178.22;;;-6.78;38.49
46846;BME280;33947;46.804;134.252;2023-02-21T03:16:44;102143.69;;;-7.53;41.58
46846;BME280;33947;46.804;134.252;2023-02-21T03:19:52;102090.47;;;-8.34;40.00
46846;BME280;33947;46.804;134.252;2023-02-21T03:23:02;102146.13;;;-7.31;41.74
46846;BME280;33947;46.804;134.252;2023-02-21T03:26:09;102126.19;;;-7.81;41.06
46846;BME280;33947;46.804;134.252;2023-02-21T03:29:20;102126.06;;;-7.47;41.33
46846;BME280;33947;46.804;134.252;2023-02-21T03:32:32;102113.66;;;-7.39;42.58
46846;BME280;33947;46.804;134.252;2023-02-21T03:35:40;102143.97;;;-7.24;41.62
46846;BME280;33947;46.804;134.252;2023-02-21T03:38:45;102137.03;;;-7.25;41.45
46846;BME280;33947;46.804;134.252;2023-02-21T03:41:50;102138.84;;;-7.84;40.57
46846;BME280;33947;46.804;134.252;2023-02-21T03:44:55;102097.44;;;-7.74;41.25
46846;BME280;33947;46.804;134.252;2023-02-21T03:47:59;102131.66;;;-7.41;41.04
46846;BME280;33947;46.804;134.252;2023-02-21T03:51:05;102136.31;;;-7.11;40.56
46846;BME280;33947;46.804;134.252;2023-02-21T03:54:11;102127.50;;;-7.98;41.40
46846;BME280;33947;46.804;134.252;2023-02-21T03:57:20;102128.28;;;-7.28;40.54
46846;BME280;33947;46.804;134.252;2023-02-21T04:00:25;102117.44;;;-7.71;41.40
46846;BME280;33947;46.804;134.252;2023-02-21T04:03:30;102122.22;;;-7.88;42.13
46846;BME280;33947;46.804;134.252;2023-02-21T04:06:38;102121.47;;;-7.63;41.85
46846;BME280;33947;46.804;134.252;2023-02-21T04:09:43;102118.03;;;-7.26;41.06
46846;BME280;33947;46.804;134.252;2023-02-21T04:12:51;102046.19;;;-8.05;40.75
46846;BME280;33947;46.804;134.252;2023-02-21T04:15:56;102109.22;;;-7.77;41.60
46846;BME280;33947;46.804;134.252;2023-02-21T04:19:01;102115.72;;;-7.47;41.56
46846;BME280;33947;46.804;134.252;2023-02-21T04:22:06;102092.41;;;-8.08;39.25
46846;BME280;33947;46.804;134.252;2023-02-21T04:25:11;102048.78;;;-8.17;40.56
46846;BME280;33947;46.804;134.252;2023-02-21T04:28:26;102105.41;;;-7.59;41.25
46846;BME280;33947;46.804;134.252;2023-02-21T04:31:31;102012.00;;;-8.26;42.82
46846;BME280;33947;46.804;134.252;2023-02-21T04:34:40;102093.06;;;-8.22;39.72
46846;BME280;33947;46.804;134.252;2023-02-21T04:37:45;102089.25;;;-7.92;40.92
46846;BME280;33947;46.804;134.252;2023-02-21T04:40:50;102029.94;;;-8.16;40.56
46846;BME280;33947;46.804;134.252;2023-02-21T04:43:55;102086.91;;;-8.01;40.46
46846;BME280;33947;46.804;134.252;2023-02-21T04:47:00;102013.69;;;-8.38;41.21
46846;BME280;33947;46.804;134.252;2023-02-21T04:50:05;102072.78;;;-8.30;40.44
46846;BME280;33947;46.804;134.252;2023-02-21T04:53:09;102084.00;;;-8.05;41.82
46846;BME280;33947;46.804;134.252;2023-02-21T04:56:14;102095.59;;;-8.46;41.66
46846;BME280;33947;46.804;134.252;2023-02-21T04:59:18;102073.06;;;-8.49;41.45
46846;BME280;33947;46.804;134.252;2023-02-21T05:02:22;102050.19;;;-8.44;41.72
46846;BME280;33947;46.804;134.252;2023-02-21T05:05:26;102077.13;;;-8.52;41.88
46846;BME280;33947;46.804;134.252;2023-02-21T05:08:31;102079.94;;;-8.37;42.53
46846;BME280;33947;46.804;134.252;2023-02-21T05:11:35;102093.75;;;-8.01;42.55
46846;BME280;33947;46.804;134.252;2023-02-21T05:14:40;102108.09;;;-8.05;40.90
46846;BME280;33947;46.804;134.252;2023-02-21T05:17:44;102088.34;;;-8.16;41.55
46846;BME280;33947;46.804;134.252;2023-02-21T05:20:49;102085.78;;;-8.16;39.77
46846;BME280;33947;46.804;134.252;2023-02-21T05:23:52;102106.31;;;-7.82;40.12
46846;BME280;33947;46.804;134.252;2023-02-21T05:27:00;102086.44;;;-8.19;40.34
46846;BME280;33947;46.804;134.252;2023-02-21T05:30:04;102090.97;;;-8.04;40.08
46846;BME280;33947;46.804;134.252;2023-02-21T05:33:08;102061.78;;;-8.27;38.72
46846;BME280;33947;46.804;134.252;2023-02-21T05:36:12;102083.84;;;-8.19;39.62
46846;BME280;33947;46.804;134.252;2023-02-21T05:39:16;102107.09;;;-8.07;40.22
46846;BME280;33947;46.804;134.252;2023-02-21T05:42:20;102075.78;;;-8.00;39.78
46846;BME280;33947;46.804;134.252;2023-02-21T05:45:27;102092.06;;;-7.89;40.32
46846;BME280;33947;46.804;134.252;2023-02-21T05:48:31;102083.41;;;-7.65;39.36
46846;BME280;33947;46.804;134.252;2023-02-21T05:51:41;102085.78;;;-8.04;40.96
46846;BME280;33947;46.804;134.252;2023-02-21T05:54:46;102091.03;;;-8.26;40.69
46846;BME280;33947;46.804;134.252;2023-02-21T05:57:50;102091.03;;;-8.15;40.40
46846;BME280;33947;46.804;134.252;2023-02-21T06:00:55;102099.25;;;-8.08;40.41
46846;BME280;33947;46.804;134.252;2023-02-21T06:03:59;102090.91;;;-8.28;39.48
46846;BME280;33947;46.804;134.252;2023-02-21T06:07:06;102074.78;;;-8.02;40.61
46846;BME280;33947;46.804;134.252;2023-02-21T06:10:11;102126.78;;;-8.31;40.50
46846;BME280;33947;46.804;134.252;2023-02-21T06:13:16;102106.84;;;-8.80;40.70
46846;BME280;33947;46.804;134.252;2023-02-21T06:16:21;102104.81;;;-8.50;41.30
46846;BME280;33947;46.804;134.252;2023-02-21T06:19:25;101972.28;;;-8.99;41.00
46846;BME280;33947;46.804;134.252;2023-02-21T06:22:30;102117.56;;;-8.39;41.44
46846;BME280;33947;46.804;134.252;2023-02-21T06:25:40;102117.16;;;-8.22;42.04
46846;BME280;33947;46.804;134.252;2023-02-21T06:28:45;102139.72;;;-8.07;40.59
46846;BME280;33947;46.804;134.252;2023-02-21T06:31:55;102137.31;;;-8.28;40.84
46846;BME280;33947;46.804;134.252;2023-02-21T06:35:00;102151.56;;;-8.67;40.90
46846;BME280;33947;46.804;134.252;2023-02-21T06:38:04;102137.91;;;-8.89;41.59
46846;BME280;33947;46.804;134.252;2023-02-21T06:41:08;102138.81;;;-8.66;41.85
46846;BME280;33947;46.804;134.252;2023-02-21T06:44:13;102099.56;;;-8.74;40.95
46846;BME280;33947;46.804;134.252;2023-02-21T06:47:20;102145.00;;;-8.40;40.68
46846;BME280;33947;46.804;134.252;2023-02-21T06:50:24;102142.28;;;-8.65;41.11
46846;BME280;33947;46.804;134.252;2023-02-21T06:53:29;102146.63;;;-8.30;41.56
46846;BME280;33947;46.804;134.252;2023-02-21T06:56:34;102158.84;;;-8.27;41.75
46846;BME280;33947;46.804;134.252;2023-02-21T06:59:38;102141.31;;;-8.55;42.21
46846;BME280;33947;46.804;134.252;2023-02-21T07:02:43;102159.16;;;-8.35;41.87
46846;BME280;33947;46.804;134.252;2023-02-21T07:05:48;102131.81;;;-9.23;42.31
46846;BME280;33947;46.804;134.252;2023-02-21T07:08:52;102150.88;;;-8.99;42.82
46846;BME280;33947;46.804;134.252;2023-02-21T07:11:56;102157.44;;;-8.80;42.59
46846;BME280;33947;46.804;134.252;2023-02-21T07:15:01;102176.41;;;-9.12;43.62
46846;BME280;33947;46.804;134.252;2023-02-21T07:18:05;102133.66;;;-9.10;43.93
46846;BME280;33947;46.804;134.252;2023-02-21T07:21:10;102157.50;;;-9.13;43.05
46846;BME280;33947;46.804;134.252;2023-02-21T07:24:15;102178.53;;;-9.62;43.82
46846;BME280;33947;46.804;134.252;2023-02-21T07:27:20;102149.09;;;-9.76;44.90
46846;BME280;33947;46.804;134.252;2023-02-21T07:30:24;102116.66;;;-9.63;44.05
46846;BME280;33947;46.804;134.252;2023-02-21T07:33:31;102178.34;;;-9.53;44.59
46846;BME280;33947;46.804;134.252;2023-02-21T07:36:36;102152.63;;;-9.53;44.31
46846;BME280;33947;46.804;134.252;2023-02-21T07:39:42;102154.75;;;-9.37;43.57
46846;BME280;33947;46.804;134.252;2023-02-21T07:42:46;102186.94;;;-9.09;43.93
46846;BME280;33947;46.804;134.252;2023-02-21T07:45:51;102165.25;;;-9.56;44.16
46846;BME280;33947;46.804;134.252;2023-02-21T07:48:55;102170.00;;;-9.50;43.56
46846;BME280;33947;46.804;134.252;2023-02-21T07:51:59;102193.44;;;-9.57;44.43
46846;BME280;33947;46.804;134.252;2023-02-21T07:55:04;102195.03;;;-9.91;44.26
46846;BME280;33947;46.804;134.252;2023-02-21T07:58:09;102214.28;;;-9.75;44.78
46846;BME280;33947;46.804;134.252;2023-02-21T08:01:15;102210.94;;;-9.84;44.83
46846;BME280;33947;46.804;134.252;2023-02-21T08:04:19;102195.28;;;-9.98;44.84
46846;BME280;33947;46.804;134.252;2023-02-21T08:07:24;102131.44;;;-10.35;45.12
46846;BME280;33947;46.804;134.252;2023-02-21T08:10:28;102184.34;;;-10.06;44.51
46846;BME280;33947;46.804;134.252;2023-02-21T08:13:33;102136.63;;;-10.55;44.47
46846;BME280;33947;46.804;134.252;2023-02-21T08:16:37;102182.44;;;-10.39;44.39
46846;BME280;33947;46.804;134.252;2023-02-21T08:19:42;102191.84;;;-10.50;44.61
46846;BME280;33947;46.804;134.252;2023-02-21T08:22:47;102191.31;;;-10.56;45.42
46846;BME280;33947;46.804;134.252;2023-02-21T08:25:51;102177.56;;;-10.67;44.97
46846;BME280;33947;46.804;134.252;2023-02-21T08:28:56;102180.88;;;-10.79;45.00
46846;BME280;33947;46.804;134.252;2023-02-21T08:32:00;102184.16;;;-10.90;45.23
46846;BME280;33947;46.804;134.252;2023-02-21T08:35:05;102174.47;;;-11.13;44.92
46846;BME280;33947;46.804;134.252;2023-02-21T08:38:09;102173.94;;;-11.49;45.59
46846;BME280;33947;46.804;134.252;2023-02-21T08:41:13;102191.13;;;-11.48;45.53
46846;BME280;33947;46.804;134.252;2023-02-21T08:44:20;102186.06;;;-11.57;45.29
46846;BME280;33947;46.804;134.252;2023-02-21T08:47:25;102206.03;;;-11.63;45.93
46846;BME280;33947;46.804;134.252;2023-02-21T08:50:29;102183.66;;;-11.94;46.02
46846;BME280;33947;46.804;134.252;2023-02-21T08:53:34;102186.19;;;-12.04;46.21
46846;BME280;33947;46.804;134.252;2023-02-21T08:56:39;102183.88;;;-12.20;46.46
46846;BME280;33947;46.804;134.252;2023-02-21T08:59:43;102183.25;;;-12.37;46.59
46846;BME280;33947;46.804;134.252;2023-02-21T09:02:50;102211.41;;;-12.37;46.65
46846;BME280;33947;46.804;134.252;2023-02-21T09:05:55;102223.81;;;-12.22;46.26
46846;BME280;33947;46.804;134.252;2023-02-21T09:08:59;102211.88;;;-12.41;46.81
46846;BME280;33947;46.804;134.252;2023-02-21T09:12:04;102229.28;;;-12.28;46.48
46846;BME280;33947;46.804;134.252;2023-02-21T09:15:16;102189.97;;;-12.56;46.31
46846;BME280;33947;46.804;134.252;2023-02-21T09:18:22;102209.66;;;-12.46;46.54
46846;BME280;33947;46.804;134.252;2023-02-21T09:21:29;102184.72;;;-12.58;46.19
46846;BME280;33947;46.804;134.252;2023-02-21T09:24:33;102207.81;;;-12.39;46.23
46846;BME280;33947;46.804;134.252;2023-02-21T09:27:38;102233.94;;;-12.24;46.34
46846;BME280;33947;46.804;134.252;2023-02-21T09:30:43;102221.22;;;-12.13;45.68
46846;BME280;33947;46.804;134.252;2023-02-21T09:33:47;102230.50;;;-12.05;45.13
46846;BME280;33947;46.804;134.252;2023-02-21T09:36:56;102228.41;;;-12.09;45.23
46846;BME280;33947;46.804;134.252;2023-02-21T09:40:03;102191.31;;;-12.32;45.08
46846;BME280;33947;46.804;134.252;2023-02-21T09:43:22;102247.91;;;-12.20;45.66
46846;BME280;33947;46.804;134.252;2023-02-21T09:46:41;102244.34;;;-12.59;46.82
46846;BME280;33947;46.804;134.252;2023-02-21T09:49:47;102201.81;;;-13.21;48.10
46846;BME280;33947;46.804;134.252;2023-02-21T09:52:55;102231.03;;;-12.83;47.35
46846;BME280;33947;46.804;134.252;2023-02-21T09:59:49;102087.06;;;-13.90;46.66
46846;BME280;33947;46.804;134.252;2023-02-21T10:03:25;102256.34;;;-12.95;47.31
46846;BME280;33947;46.804;134.252;2023-02-21T10:10:20;102260.56;;;-13.04;47.03
46846;BME280;33947;46.804;134.252;2023-02-21T10:13:31;102256.97;;;-12.97;46.83
46846;BME280;33947;46.804;134.252;2023-02-21T10:17:18;102254.41;;;-13.06;46.86
46846;BME280;33947;46.804;134.252;2023-02-21T10:20:38;102237.03;;;-13.36;47.19
46846;BME280;33947;46.804;134.252;2023-02-21T10:23:49;102241.34;;;-13.18;47.38
46846;BME280;33947;46.804;134.252;2023-02-21T10:27:10;102251.19;;;-13.75;48.99
46846;BME280;33947;46.804;134.252;2023-02-21T10:30:32;102246.28;;;-14.25;50.37
46846;BME280;33947;46.804;134.252;2023-02-21T10:33:39;102247.50;;;-14.21;50.41
46846;BME280;33947;46.804;134.252;2023-02-21T10:36:44;102179.16;;;-14.33;49.43
46846;BME280;33947;46.804;134.252;2023-02-21T10:43:45;102242.59;;;-13.67;47.85
46846;BME280;33947;46.804;134.252;2023-02-21T10:47:16;102251.03;;;-13.68;47.89
46846;BME280;33947;46.804;134.252;2023-02-21T10:50:42;102245.03;;;-13.60;46.99
46846;BME280;33947;46.804;134.252;2023-02-21T10:53:46;102195.69;;;-14.29;48.37
46846;BME280;33947;46.804;134.252;2023-02-21T10:56:52;102228.69;;;-14.31;50.57
46846;BME280;33947;46.804;134.252;2023-02-21T10:59:57;102234.47;;;-14.07;49.09
46846;BME280;33947;46.804;134.252;2023-02-21T11:03:34;102212.53;;;-14.05;47.98
46846;BME280;33947;46.804;134.252;2023-02-21T11:10:30;102238.34;;;-14.11;48.00
46846;BME280;33947;46.804;134.252;2023-02-21T11:13:35;102217.19;;;-14.09;47.47
46846;BME280;33947;46.804;134.252;2023-02-21T11:16:40;102204.72;;;-14.15;47.26
46846;BME280;33947;46.804;134.252;2023-02-21T11:19:55;102240.94;;;-14.02;47.36
46846;BME280;33947;46.804;134.252;2023-02-21T11:23:00;102231.13;;;-14.23;47.29
46846;BME280;33947;46.804;134.252;2023-02-21T11:26:08;102228.34;;;-14.51;48.78
46846;BME280;33947;46.804;134.252;2023-02-21T11:29:21;102207.97;;;-14.94;48.63
46846;BME280;33947;46.804;134.252;2023-02-21T11:32:35;102234.53;;;-15.58;51.11
46846;BME280;33947;46.804;134.252;2023-02-21T11:35:49;102215.22;;;-15.56;50.68
46846;BME280;33947;46.804;134.252;2023-02-21T11:39:30;102238.66;;;-15.67;51.26
46846;BME280;33947;46.804;134.252;2023-02-21T11:42:37;102217.75;;;-15.56;50.47
46846;BME280;33947;46.804;134.252;2023-02-21T11:53:42;102220.38;;;-16.36;52.06
46846;BME280;33947;46.804;134.252;2023-02-21T12:11:20;102245.47;;;-16.55;52.27
46846;BME280;33947;46.804;134.252;2023-02-21T12:15:06;102251.13;;;-16.41;50.91
46846;BME280;33947;46.804;134.252;2023-02-21T12:18:25;102245.28;;;-16.56;51.31
46846;BME280;33947;46.804;134.252;2023-02-21T12:36:29;102232.75;;;-17.25;52.96
46846;BME280;33947;46.804;134.252;2023-02-21T12:43:59;102226.06;;;-17.01;51.41
46846;BME280;33947;46.804;134.252;2023-02-21T12:50:32;102225.97;;;-17.40;51.80
46846;BME280;33947;46.804;134.252;2023-02-21T12:57:09;102196.47;;;-17.85;51.89
46846;BME280;33947;46.804;134.252;2023-02-21T13:00:30;102195.56;;;-17.93;52.59
46846;BME280;33947;46.804;134.252;2023-02-21T13:04:14;102203.78;;;-18.02;54.07
46846;BME280;33947;46.804;134.252;2023-02-21T13:14:00;101997.47;;;-19.53;54.26
46846;BME280;33947;46.804;134.252;2023-02-21T13:17:14;102198.50;;;-18.49;55.70
46846;BME280;33947;46.804;134.252;2023-02-21T13:20:36;102176.81;;;-18.61;55.08
46846;BME280;33947;46.804;134.252;2023-02-21T13:23:56;102187.84;;;-18.54;54.78
46846;BME280;33947;46.804;134.252;2023-02-21T13:33:34;102174.47;;;-18.74;56.69
46846;BME280;33947;46.804;134.252;2023-02-21T13:36:43;102115.00;;;-19.29;55.69
46846;BME280;33947;46.804;134.252;2023-02-21T13:39:56;102191.59;;;-18.36;55.08
46846;BME280;33947;46.804;134.252;2023-02-21T13:49:44;102198.31;;;-18.43;54.16
46846;BME280;33947;46.804;134.252;2023-02-21T14:02:28;102185.16;;;-18.92;54.66
46846;BME280;33947;46.804;134.252;2023-02-21T14:08:58;102196.59;;;-19.10;55.18
46846;BME280;33947;46.804;134.252;2023-02-21T14:12:04;102169.94;;;-18.77;54.28
46846;BME280;33947;46.804;134.252;2023-02-21T14:15:09;102191.16;;;-18.91;54.44
46846;BME280;33947;46.804;134.252;2023-02-21T14:18:20;102195.13;;;-19.00;54.38
46846;BME280;33947;46.804;134.252;2023-02-21T14:24:37;102185.03;;;-19.15;55.35
46846;BME280;33947;46.804;134.252;2023-02-21T14:27:43;102183.94;;;-19.31;56.09
46846;BME280;33947;46.804;134.252;2023-02-21T14:30:48;102186.59;;;-18.65;53.64
46846;BME280;33947;46.804;134.252;2023-02-21T14:33:56;102165.84;;;-19.20;53.96
46846;BME280;33947;46.804;134.252;2023-02-21T14:47:08;102191.09;;;-19.63;55.19
46846;BME280;33947;46.804;134.252;2023-02-21T15:03:47;102194.34;;;-19.65;53.82
46846;BME280;33947;46.804;134.252;2023-02-21T15:13:32;102195.38;;;-19.77;54.98
46846;BME280;33947;46.804;134.252;2023-02-21T15:16:49;102174.66;;;-19.60;54.67
46846;BME280;33947;46.804;134.252;2023-02-21T15:20:12;102181.09;;;-19.91;55.29
46846;BME280;33947;46.804;134.252;2023-02-21T15:23:20;102182.75;;;-19.70;55.15
46846;BME280;33947;46.804;134.252;2023-02-21T15:26:32;102154.31;;;-20.03;55.12
46846;BME280;33947;46.804;134.252;2023-02-21T15:29:37;102176.81;;;-19.63;53.70
46846;BME280;33947;46.804;134.252;2023-02-21T15:32:42;102165.75;;;-20.34;54.62
46846;BME280;33947;46.804;134.252;2023-02-21T15:36:00;102176.75;;;-19.99;56.21
46846;BME280;33947;46.804;134.252;2023-02-21T15:39:11;102160.09;;;-20.04;55.41
46846;BME280;33947;46.804;134.252;2023-02-21T15:42:21;102174.69;;;-20.16;55.17
46846;BME280;33947;46.804;134.252;2023-02-21T15:45:30;102180.03;;;-19.78;53.93
46846;BME280;33947;46.804;134.252;2023-02-21T15:48:37;102146.75;;;-19.89;53.67
46846;BME280;33947;46.804;134.252;2023-02-21T15:51:41;102173.84;;;-20.02;54.10
46846;BME280;33947;46.804;134.252;2023-02-21T15:54:45;102177.84;;;-19.90;53.61
46846;BME280;33947;46.804;134.252;2023-02-21T15:58:10;102170.91;;;-20.13;54.19
46846;BME280;33947;46.804;134.252;2023-02-21T16:01:19;102138.75;;;-20.21;54.58
46846;BME280;33947;46.804;134.252;2023-02-21T16:04:37;102130.31;;;-20.49;55.73
46846;BME280;33947;46.804;134.252;2023-02-21T16:07:42;102129.91;;;-20.59;55.32
46846;BME280;33947;46.804;134.252;2023-02-21T16:10:48;102143.91;;;-20.69;56.43
46846;BME280;33947;46.804;134.252;2023-02-21T16:13:52;102169.72;;;-20.36;55.93
46846;BME280;33947;46.804;134.252;2023-02-21T16:20:30;102165.66;;;-20.14;55.26
46846;BME280;33947;46.804;134.252;2023-02-21T16:23:42;102156.97;;;-20.16;55.37
46846;BME280;33947;46.804;134.252;2023-02-21T16:27:08;102166.81;;;-20.40;55.53
46846;BME280;33947;46.804;134.252;2023-02-21T16:30:31;102171.31;;;-20.79;57.85
46846;BME280;33947;46.804;134.252;2023-02-21T16:33:38;102162.59;;;-20.54;57.24
46846;BME280;33947;46.804;134.252;2023-02-21T16:36:45;102150.72;;;-19.98;54.17
46846;BME280;33947;46.804;134.252;2023-02-21T16:39:52;102166.56;;;-20.48;54.86
46846;BME280;33947;46.804;134.252;2023-02-21T16:42:58;102173.06;;;-20.23;55.20
46846;BME280;33947;46.804;134.252;2023-02-21T16:46:04;102160.28;;;-20.45;55.41
46846;BME280;33947;46.804;134.252;2023-02-21T16:49:09;102159.59;;;-20.36;54.69
46846;BME280;33947;46.804;134.252;2023-02-21T16:52:15;102167.84;;;-20.10;54.00
46846;BME280;33947;46.804;134.252;2023-02-21T16:55:20;102175.47;;;-20.45;53.79
46846;BME280;33947;46.804;134.252;2023-02-21T16:58:30;102174.41;;;-20.40;54.12
46846;BME280;33947;46.804;134.252;2023-02-21T17:01:35;102169.13;;;-20.83;55.34
46846;BME280;33947;46.804;134.252;2023-02-21T17:04:41;102148.63;;;-20.99;55.24
46846;BME280;33947;46.804;134.252;2023-02-21T17:07:46;102175.22;;;-20.88;55.30
46846;BME280;33947;46.804;134.252;2023-02-21T17:10:50;102152.59;;;-21.21;56.01
46846;BME280;33947;46.804;134.252;2023-02-21T17:13:54;102172.69;;;-20.88;56.79
46846;BME280;33947;46.804;134.252;2023-02-21T17:16:58;102170.13;;;-20.95;55.86
46846;BME280;33947;46.804;134.252;2023-02-21T17:20:03;102118.03;;;-21.15;56.18
46846;BME280;33947;46.804;134.252;2023-02-21T17:23:08;102161.50;;;-20.90;56.49
46846;BME280;33947;46.804;134.252;2023-02-21T17:26:15;102152.31;;;-21.10;56.88
46846;BME280;33947;46.804;134.252;2023-02-21T17:29:20;102157.63;;;-20.67;56.73
46846;BME280;33947;46.804;134.252;2023-02-21T17:32:25;102035.16;;;-21.67;57.86
46846;BME280;33947;46.804;134.252;2023-02-21T17:35:29;102136.00;;;-20.64;56.22
46846;BME280;33947;46.804;134.252;2023-02-21T17:38:35;102121.41;;;-21.02;56.43
46846;BME280;33947;46.804;134.252;2023-02-21T17:41:47;102137.63;;;-21.00;56.97
46846;BME280;33947;46.804;134.252;2023-02-21T17:44:52;102110.13;;;-21.11;57.58
46846;BME280;33947;46.804;134.252;2023-02-21T17:47:56;102139.53;;;-20.84;56.99
46846;BME280;33947;46.804;134.252;2023-02-21T17:51:01;102123.16;;;-20.31;58.63
46846;BME280;33947;46.804;134.252;2023-02-21T17:54:05;102068.69;;;-21.33;58.75
46846;BME280;33947;46.804;134.252;2023-02-21T17:57:13;102119.13;;;-20.86;58.22
46846;BME280;33947;46.804;134.252;2023-02-21T18:00:23;102138.22;;;-20.60;58.16
46846;BME280;33947;46.804;134.252;2023-02-21T18:03:28;102118.81;;;-20.32;57.63
46846;BME280;33947;46.804;134.252;2023-02-21T18:06:33;102123.53;;;-20.28;56.71
46846;BME280;33947;46.804;134.252;2023-02-21T18:09:40;102110.03;;;-20.63;56.45
46846;BME280;33947;46.804;134.252;2023-02-21T18:12:44;102125.38;;;-20.97;58.16
46846;BME280;33947;46.804;134.252;2023-02-21T18:15:55;102132.59;;;-20.58;56.99
46846;BME280;33947;46.804;134.252;2023-02-21T18:19:05;102123.31;;;-20.44;55.17
46846;BME280;33947;46.804;134.252;2023-02-21T18:22:11;102141.78;;;-20.31;55.90
46846;BME280;33947;46.804;134.252;2023-02-21T18:25:17;102121.47;;;-20.45;55.71
46846;BME280;33947;46.804;134.252;2023-02-21T18:28:24;102063.41;;;-20.80;55.05
46846;BME280;33947;46.804;134.252;2023-02-21T18:31:28;102115.88;;;-20.50;54.93
46846;BME280;33947;46.804;134.252;2023-02-21T18:34:33;102090.50;;;-20.79;55.30
46846;BME280;33947;46.804;134.252;2023-02-21T18:37:37;102129.53;;;-20.13;55.25
46846;BME280;33947;46.804;134.252;2023-02-21T18:40:41;102122.44;;;-20.30;54.78